Agnes — WDH9915 — position and weather

sailwx.info

Track history (hours):
 
Tides and Currents Weather Stations Pressure Air Temp Water Temp Dewpoint Dewpoint Depression Visibility Wind Speed Wind Dir Waves Ship Positions

Agnes

Owner: VINIK MARINE SERVICES, LLC, KEYPORT, NJ. More information available from US FCC via Universal Licensing System and Coast Guard Vessel Documentation Center.

Last reported at 2017-Oct-16 19:11 UTC. Time now 2017-Oct-19 23:46 UTC.
Position N 40°34' W 074°13'.

Length 18 m; draft 3 m.

Type: Tug. MMSI: 367672850.

Date/timePositionNaut miles runAvg speedWind from/ knotsBaromVisibWave heightAir tempDewpointWater temp
2017-Oct-16 19:11N 40°34' W 074°13'  
2017-Oct-12 21:48N 40°34' W 074°13'2 6.9
2017-Oct-12 21:30N 40°37' W 074°12'3 5.7
2017-Oct-12 21:00N 40°39' W 074°10'3 6.3
2017-Oct-12 20:30N 40°41' W 074°08'3 6.5
2017-Oct-12 20:00N 40°44' W 074°06'0 1.0
2017-Oct-12 19:30N 40°44' W 074°05'0 0.2
2017-Oct-12 19:00N 40°44' W 074°05'0 0.3
2017-Oct-12 18:30N 40°44' W 074°05'0 0.1
2017-Oct-12 18:00N 40°44' W 074°05'0 0.1
2017-Oct-12 17:29N 40°44' W 074°05'0 0.0
2017-Oct-12 17:00N 40°44' W 074°05'0 0.0
2017-Oct-12 16:30N 40°44' W 074°05'0 0.0
2017-Oct-12 16:00N 40°44' W 074°05'0 0.0
2017-Oct-12 15:30N 40°44' W 074°05'0 0.0
2017-Oct-12 15:00N 40°44' W 074°05'0 0.3
2017-Oct-12 14:30N 40°44' W 074°05'0 0.1
2017-Oct-12 14:00N 40°45' W 074°05'0 0.0
2017-Oct-12 13:30N 40°45' W 074°05'0 0.0
2017-Oct-12 13:00N 40°45' W 074°05'0 0.1
2017-Oct-12 12:30N 40°44' W 074°05'1 2.2
2017-Oct-12 12:00N 40°44' W 074°06'3 5.3
2017-Oct-12 11:30N 40°41' W 074°08'5 5.4
2017-Oct-12 10:30N 40°37' W 074°12'  
2017-Oct-09 16:22N 40°34' W 074°13'2 5.8
2017-Oct-09 15:59N 40°37' W 074°12'3 5.2
2017-Oct-09 15:30N 40°39' W 074°11'2 5.0
2017-Oct-09 15:00N 40°41' W 074°08'1 2.3
2017-Oct-09 14:30N 40°42' W 074°07'2 4.0
2017-Oct-09 14:00N 40°43' W 074°06'2 3.1
2017-Oct-09 13:30N 40°44' W 074°05'0 0.2
2017-Oct-09 13:00N 40°45' W 074°05'2 4.0
2017-Oct-09 12:30N 40°43' W 074°06'4 7.2
2017-Oct-09 12:00N 40°40' W 074°09'3 5.8
2017-Oct-09 11:30N 40°38' W 074°12'  
Track history (hours):
 
Tides and Currents Weather Stations Pressure Air Temp Water Temp Dewpoint Dewpoint Depression Visibility Wind Speed Wind Dir Waves Ship Positions

Agnes

Owner: VINIK MARINE SERVICES, LLC, KEYPORT, NJ. More information available from US FCC via Universal Licensing System and Coast Guard Vessel Documentation Center.

Last reported at 2017-Oct-16 19:11 UTC. Time now 2017-Oct-19 23:46 UTC.
Position N 40°34' W 074°13'.

Length 18 m; draft 3 m.

Type: Tug. MMSI: 367672850.

Date/timePositionNaut miles runAvg speedWind from/ knotsBaromVisibWave heightAir tempDewpointWater temp
2017-Oct-16 19:11N 40°34' W 074°13'  
2017-Oct-12 21:48N 40°34' W 074°13'2 6.9
2017-Oct-12 21:30N 40°37' W 074°12'3 5.7
2017-Oct-12 21:00N 40°39' W 074°10'3 6.3
2017-Oct-12 20:30N 40°41' W 074°08'3 6.5
2017-Oct-12 20:00N 40°44' W 074°06'0 1.0
2017-Oct-12 19:30N 40°44' W 074°05'0 0.2
2017-Oct-12 19:00N 40°44' W 074°05'0 0.3
2017-Oct-12 18:30N 40°44' W 074°05'0 0.1
2017-Oct-12 18:00N 40°44' W 074°05'0 0.1
2017-Oct-12 17:29N 40°44' W 074°05'0 0.0
2017-Oct-12 17:00N 40°44' W 074°05'0 0.0
2017-Oct-12 16:30N 40°44' W 074°05'0 0.0
2017-Oct-12 16:00N 40°44' W 074°05'0 0.0
2017-Oct-12 15:30N 40°44' W 074°05'0 0.0
2017-Oct-12 15:00N 40°44' W 074°05'0 0.3
2017-Oct-12 14:30N 40°44' W 074°05'0 0.1
2017-Oct-12 14:00N 40°45' W 074°05'0 0.0
2017-Oct-12 13:30N 40°45' W 074°05'0 0.0
2017-Oct-12 13:00N 40°45' W 074°05'0 0.1
2017-Oct-12 12:30N 40°44' W 074°05'1 2.2
2017-Oct-12 12:00N 40°44' W 074°06'3 5.3
2017-Oct-12 11:30N 40°41' W 074°08'5 5.4
2017-Oct-12 10:30N 40°37' W 074°12'  
2017-Oct-09 16:22N 40°34' W 074°13'2 5.8
2017-Oct-09 15:59N 40°37' W 074°12'3 5.2
2017-Oct-09 15:30N 40°39' W 074°11'2 5.0
2017-Oct-09 15:00N 40°41' W 074°08'1 2.3
2017-Oct-09 14:30N 40°42' W 074°07'2 4.0
2017-Oct-09 14:00N 40°43' W 074°06'2 3.1
2017-Oct-09 13:30N 40°44' W 074°05'0 0.2
2017-Oct-09 13:00N 40°45' W 074°05'2 4.0
2017-Oct-09 12:30N 40°43' W 074°06'4 7.2
2017-Oct-09 12:00N 40°40' W 074°09'3 5.8
2017-Oct-09 11:30N 40°38' W 074°12'  

Dump ship's entire track history